Mechanicsville, Iowa
Current Conditions -  °F | °C
As of 4:52 AM on Saturday 20 Dec 2014 (Local Time) from KCID Reporting Station
Overcast Overcast  
Wind Chill: 24°   Ceiling: 1500
Heat Index: 30°   Visibility: 7mi
Dew Point: 25°   Wind: 6mph
Humidity: 82%   Direction: 140°SE
Pressure: 30.2"   Gusts: NA
Location:  41.9°N, 91.25°W
Report Text: KCID 201052Z 14005KT 7SM OVC015 M01/M04 A3020 RMK AO2 SLP237 T10111039 $
Loading
Personal Weather Stations






























Interactive Weather Map New forecast layout! Learn more

10-Day Weather Forecast

Advertisements
Track Severe Weather on mobile